Time;durP1;ratioP1;P1;durP2;ratioP2;P2;SDS_P1;SDS_P2;PMS_P1;PMS_P2;Temp;Humidity;BMP_temperature;BMP_pressure;BME280_temperature;BME280_humidity;BME280_pressure;Samples;Min_cycle;Max_cycle;Signal;HPM_P1;HPM_P2
2023/03/02 00:03:45;;;;;;;;;;;18.60;44.60;;;;;;10413674;28;860;-74
2023/03/02 00:08:40;;;;;;;;;;;18.60;44.70;;;;;;10412770;28;799;-74
2023/03/02 00:13:35;;;;;;;;;;;18.60;44.80;;;;;;10413347;28;785;-74
2023/03/02 00:18:31;;;;;;;;;;;18.60;44.80;;;;;;10413026;28;1965;-74
2023/03/02 00:23:26;;;;;;;;;;;18.60;44.80;;;;;;10412892;28;841;-74
2023/03/02 00:28:21;;;;;;;;;;;18.60;44.70;;;;;;10413555;28;830;-74
2023/03/02 00:33:18;;;;;;;;;;;18.50;44.70;;;;;;10412189;28;862;-74
2023/03/02 00:38:14;;;;;;;;;;;18.60;44.90;;;;;;10412234;28;1945;-74
2023/03/02 00:43:09;;;;;;;;;;;18.60;44.80;;;;;;10412205;28;809;-74
2023/03/02 00:48:04;;;;;;;;;;;18.50;44.80;;;;;;10412994;28;1174;-74
2023/03/02 00:53:00;;;;;;;;;;;18.60;45.00;;;;;;10411846;28;824;-74
2023/03/02 00:57:55;;;;;;;;;;;18.50;44.90;;;;;;10412088;28;1971;-74
2023/03/02 01:02:51;;;;;;;;;;;18.50;45.40;;;;;;10411360;28;807;-74
2023/03/02 01:07:46;;;;;;;;;;;18.60;44.90;;;;;;10411590;28;790;-74
2023/03/02 01:12:41;;;;;;;;;;;18.50;44.80;;;;;;10410915;28;810;-75
2023/03/02 01:17:38;;;;;;;;;;;18.50;44.80;;;;;;10410144;28;1028;-74
2023/03/02 01:22:33;;;;;;;;;;;18.50;44.90;;;;;;10410048;28;1972;-74
2023/03/02 01:27:29;;;;;;;;;;;18.50;44.90;;;;;;10410276;28;810;-74
2023/03/02 01:32:24;;;;;;;;;;;18.50;44.80;;;;;;10410112;28;897;-74
2023/03/02 01:37:21;;;;;;;;;;;18.50;44.90;;;;;;10409935;28;810;-74
2023/03/02 01:42:17;;;;;;;;;;;18.40;44.80;;;;;;10409704;28;1909;-74
2023/03/02 01:47:12;;;;;;;;;;;18.40;44.80;;;;;;10410190;28;873;-74
2023/03/02 01:52:10;;;;;;;;;;;18.50;44.90;;;;;;10409278;27;1245;-74
2023/03/02 01:57:06;;;;;;;;;;;18.50;44.90;;;;;;10409410;28;905;-74
2023/03/02 02:02:01;;;;;;;;;;;18.50;44.90;;;;;;10408859;28;1970;-74
2023/03/02 02:06:57;;;;;;;;;;;18.50;44.90;;;;;;10408532;28;847;-74
2023/03/02 02:11:52;;;;;;;;;;;18.40;44.80;;;;;;10408690;28;849;-74
2023/03/02 02:16:47;;;;;;;;;;;18.40;45.00;;;;;;10409103;28;783;-74
2023/03/02 02:21:43;;;;;;;;;;;18.40;44.90;;;;;;10408357;28;1905;-74
2023/03/02 02:26:39;;;;;;;;;;;18.40;44.90;;;;;;10408871;28;921;-74
2023/03/02 02:31:35;;;;;;;;;;;18.40;44.90;;;;;;10407725;28;873;-74
2023/03/02 02:36:31;;;;;;;;;;;18.40;45.00;;;;;;10408000;28;907;-74
2023/03/02 02:41:27;;;;;;;;;;;18.40;45.00;;;;;;10407816;28;1909;-74
2023/03/02 02:46:22;;;;;;;;;;;18.40;45.10;;;;;;10407755;28;777;-74
2023/03/02 02:51:18;;;;;;;;;;;18.40;45.00;;;;;;10408014;28;1385;-74
2023/03/02 02:56:14;;;;;;;;;;;18.40;45.00;;;;;;10407562;28;1500;-74
2023/03/02 03:01:09;;;;;;;;;;;18.40;45.10;;;;;;10407597;28;1910;-74
2023/03/02 03:06:05;;;;;;;;;;;18.40;45.00;;;;;;10407780;28;841;-74
2023/03/02 03:11:00;;;;;;;;;;;18.40;45.00;;;;;;10406752;28;937;-74
2023/03/02 03:15:55;;;;;;;;;;;18.40;45.00;;;;;;10407836;28;865;-74
2023/03/02 03:20:51;;;;;;;;;;;18.40;45.00;;;;;;10407652;28;1898;-74
2023/03/02 03:25:46;;;;;;;;;;;18.40;45.00;;;;;;10407045;28;834;-74
2023/03/02 03:30:42;;;;;;;;;;;18.40;45.00;;;;;;10406921;28;847;-74
2023/03/02 03:35:37;;;;;;;;;;;18.40;45.10;;;;;;10407750;28;844;-74
2023/03/02 03:40:33;;;;;;;;;;;18.30;45.10;;;;;;10407307;28;1901;-75
2023/03/02 03:45:28;;;;;;;;;;;18.40;45.10;;;;;;10413727;28;792;-74
2023/03/02 03:50:23;;;;;;;;;;;18.30;45.00;;;;;;10414156;28;1290;-74
2023/03/02 03:55:19;;;;;;;;;;;18.30;45.10;;;;;;10414084;28;801;-74
2023/03/02 04:00:16;;;;;;;;;;;18.30;45.10;;;;;;10413827;28;1971;-74
2023/03/02 04:05:11;;;;;;;;;;;18.30;45.10;;;;;;10414277;28;849;-74
2023/03/02 04:10:06;;;;;;;;;;;18.30;45.10;;;;;;10413512;28;757;-74
2023/03/02 04:15:02;;;;;;;;;;;18.20;45.10;;;;;;10413267;28;855;-74
2023/03/02 04:19:58;;;;;;;;;;;18.30;45.10;;;;;;10413710;28;1926;-74
2023/03/02 04:24:53;;;;;;;;;;;18.30;45.10;;;;;;10412404;28;864;-74
2023/03/02 04:29:51;;;;;;;;;;;18.30;45.20;;;;;;10412609;28;876;-74
2023/03/02 04:34:47;;;;;;;;;;;18.30;45.20;;;;;;10412473;28;952;-74
2023/03/02 04:39:46;;;;;;;;;;;18.30;45.20;;;;;;10413291;28;1957;-74
2023/03/02 04:44:41;;;;;;;;;;;18.20;45.20;;;;;;10412136;28;929;-74
2023/03/02 04:49:36;;;;;;;;;;;18.20;45.20;;;;;;10412039;28;1258;-76
2023/03/02 04:54:32;;;;;;;;;;;18.20;45.10;;;;;;10411566;28;824;-74
2023/03/02 04:59:27;;;;;;;;;;;18.20;45.10;;;;;;10411472;28;1984;-74
2023/03/02 05:04:22;;;;;;;;;;;18.20;45.10;;;;;;10410940;28;900;-74
2023/03/02 05:09:18;;;;;;;;;;;18.30;45.10;;;;;;10411453;28;936;-75
2023/03/02 05:14:13;;;;;;;;;;;18.30;45.10;;;;;;10410389;28;859;-74
2023/03/02 05:19:09;;;;;;;;;;;18.30;45.10;;;;;;10410114;28;1902;-74
2023/03/02 05:24:04;;;;;;;;;;;18.30;45.10;;;;;;10411371;28;881;-74
2023/03/02 05:28:59;;;;;;;;;;;18.30;45.10;;;;;;10410410;28;906;-74
2023/03/02 05:33:55;;;;;;;;;;;18.30;45.20;;;;;;10410186;28;811;-74
2023/03/02 05:38:50;;;;;;;;;;;18.30;45.10;;;;;;10409830;28;1906;-74
2023/03/02 05:43:45;;;;;;;;;;;18.30;45.10;;;;;;10409707;28;853;-74
2023/03/02 05:48:41;;;;;;;;;;;18.30;45.00;;;;;;10410023;28;1131;-79
2023/03/02 05:53:36;;;;;;;;;;;18.30;45.10;;;;;;10409431;28;794;-78
2023/03/02 05:58:32;;;;;;;;;;;18.30;45.00;;;;;;10409771;28;1906;-77
2023/03/02 06:03:27;;;;;;;;;;;18.30;45.00;;;;;;10408451;28;852;-79
2023/03/02 06:08:23;;;;;;;;;;;18.30;45.00;;;;;;10408430;28;822;-78
2023/03/02 06:13:18;;;;;;;;;;;18.30;45.00;;;;;;10409407;28;932;-85
2023/03/02 06:18:14;;;;;;;;;;;18.30;45.10;;;;;;10408463;28;1961;-80
2023/03/02 06:23:10;;;;;;;;;;;18.30;45.00;;;;;;10408430;28;783;-78
2023/03/02 06:28:05;;;;;;;;;;;18.30;45.70;;;;;;10409428;28;907;-78
2023/03/02 06:33:01;;;;;;;;;;;18.20;45.00;;;;;;10408099;28;886;-78
2023/03/02 06:37:56;;;;;;;;;;;18.20;45.00;;;;;;10407969;28;971;-77
2023/03/02 06:42:52;;;;;;;;;;;18.30;45.00;;;;;;10407251;28;1893;-77
2023/03/02 06:47:47;;;;;;;;;;;18.20;45.10;;;;;;10408180;28;1411;-77
2023/03/02 06:52:42;;;;;;;;;;;18.30;45.10;;;;;;10407841;28;972;-78
2023/03/02 06:57:38;;;;;;;;;;;18.20;45.00;;;;;;10408251;28;806;-77
2023/03/02 07:02:33;;;;;;;;;;;18.20;45.10;;;;;;10407456;28;1976;-77
2023/03/02 07:07:28;;;;;;;;;;;18.20;45.20;;;;;;10407508;28;759;-78
2023/03/02 07:12:24;;;;;;;;;;;18.10;45.20;;;;;;10407271;28;751;-78
2023/03/02 07:17:19;;;;;;;;;;;18.10;45.20;;;;;;10411630;28;1030;-77
2023/03/02 07:22:15;;;;;;;;;;;18.10;45.20;;;;;;10416013;28;1898;-76
2023/03/02 07:27:10;;;;;;;;;;;18.10;45.10;;;;;;10415873;28;787;-76
2023/03/02 07:32:05;;;;;;;;;;;18.10;45.00;;;;;;10415161;28;786;-77
2023/03/02 07:37:01;;;;;;;;;;;18.20;45.10;;;;;;10414293;28;774;-77
2023/03/02 07:41:56;;;;;;;;;;;18.20;45.20;;;;;;10414576;28;1960;-76
2023/03/02 07:46:51;;;;;;;;;;;18.20;45.30;;;;;;10415666;28;924;-77
2023/03/02 07:51:47;;;;;;;;;;;18.10;45.30;;;;;;10414134;28;1395;-77
2023/03/02 07:56:42;;;;;;;;;;;18.10;45.80;;;;;;10415297;28;881;-77
2023/03/02 08:01:37;;;;;;;;;;;18.10;45.20;;;;;;10414423;28;1917;-76
2023/03/02 08:06:33;;;;;;;;;;;18.10;45.30;;;;;;10413677;28;926;-77
2023/03/02 08:11:28;;;;;;;;;;;18.10;45.30;;;;;;10414099;28;876;-77
2023/03/02 08:16:25;;;;;;;;;;;18.10;45.30;;;;;;10413365;28;939;-75
2023/03/02 08:21:20;;;;;;;;;;;18.10;45.20;;;;;;10412720;28;1997;-75
2023/03/02 08:26:15;;;;;;;;;;;18.10;45.10;;;;;;10412950;28;752;-75
2023/03/02 08:31:11;;;;;;;;;;;18.10;45.00;;;;;;10412169;28;943;-75
2023/03/02 08:36:06;;;;;;;;;;;18.10;45.10;;;;;;10412573;28;838;-74
2023/03/02 08:41:02;;;;;;;;;;;18.10;45.00;;;;;;10412801;28;1977;-75
2023/03/02 08:45:57;;;;;;;;;;;18.10;44.90;;;;;;10412176;28;822;-74
2023/03/02 08:50:52;;;;;;;;;;;18.20;45.10;;;;;;10410696;28;1190;-74
2023/03/02 08:55:48;;;;;;;;;;;18.20;45.00;;;;;;10411796;28;822;-74
2023/03/02 09:00:43;;;;;;;;;;;18.20;45.00;;;;;;10412531;28;1909;-75
2023/03/02 09:05:38;;;;;;;;;;;18.10;45.00;;;;;;10411503;28;756;-74
2023/03/02 09:10:34;;;;;;;;;;;18.20;45.00;;;;;;10411171;28;756;-74
2023/03/02 09:15:29;;;;;;;;;;;18.20;45.00;;;;;;10412381;28;852;-74
2023/03/02 09:20:24;;;;;;;;;;;18.10;45.00;;;;;;10410726;28;1906;-74
2023/03/02 09:25:20;;;;;;;;;;;18.20;45.10;;;;;;10410575;28;881;-74
2023/03/02 09:30:15;;;;;;;;;;;18.20;45.00;;;;;;10410443;28;858;-77
2023/03/02 09:35:11;;;;;;;;;;;18.20;45.10;;;;;;10410774;28;826;-74
2023/03/02 09:40:06;;;;;;;;;;;18.10;45.10;;;;;;10410158;27;1913;-77
2023/03/02 09:45:01;;;;;;;;;;;18.10;44.90;;;;;;10409795;28;885;-76
2023/03/02 09:49:57;;;;;;;;;;;18.10;44.70;;;;;;10409493;28;1308;-78
2023/03/02 09:54:52;;;;;;;;;;;18.10;44.90;;;;;;10409449;28;817;-77
2023/03/02 09:59:47;;;;;;;;;;;18.10;44.90;;;;;;10409740;28;1910;-76
2023/03/02 10:04:43;;;;;;;;;;;18.10;45.00;;;;;;10410500;28;1000;-76
2023/03/02 10:09:38;;;;;;;;;;;18.10;45.00;;;;;;10408881;28;802;-75
2023/03/02 10:14:34;;;;;;;;;;;18.10;45.00;;;;;;10408696;28;853;-77
2023/03/02 10:19:31;;;;;;;;;;;18.10;45.00;;;;;;10408124;28;1909;-76
2023/03/02 10:24:26;;;;;;;;;;;18.10;45.20;;;;;;10409225;28;885;-78
2023/03/02 10:29:21;;;;;;;;;;;18.00;45.20;;;;;;10408310;28;755;-81
2023/03/02 10:34:17;;;;;;;;;;;18.00;45.40;;;;;;10408191;28;767;-79
2023/03/02 10:39:12;;;;;;;;;;;17.90;45.40;;;;;;10407941;28;1967;-72
2023/03/02 10:44:08;;;;;;;;;;;17.90;45.30;;;;;;10408674;28;926;-76
2023/03/02 10:49:03;;;;;;;;;;;18.00;45.30;;;;;;10407346;28;1456;-79
2023/03/02 10:53:58;;;;;;;;;;;17.90;45.30;;;;;;10408136;28;889;-77
2023/03/02 10:59:01;;;;;;;;;;;18.00;45.40;;;;;;10407556;28;1922;-77
2023/03/02 11:03:57;;;;;;;;;;;18.00;45.40;;;;;;10407552;28;905;-76
2023/03/02 11:08:52;;;;;;;;;;;17.90;45.40;;;;;;10407897;28;889;-77
2023/03/02 11:13:47;;;;;;;;;;;18.00;45.40;;;;;;10408121;28;811;-76
2023/03/02 11:18:43;;;;;;;;;;;18.00;45.40;;;;;;10407167;28;1967;-77
2023/03/02 11:23:39;;;;;;;;;;;18.00;45.50;;;;;;10407064;28;771;-77
2023/03/02 11:28:34;;;;;;;;;;;18.00;45.40;;;;;;10407694;28;802;-77
2023/03/02 11:33:29;;;;;;;;;;;18.00;45.40;;;;;;10406865;28;1007;-77
2023/03/02 11:38:25;;;;;;;;;;;18.00;45.40;;;;;;10406678;28;1965;-77
2023/03/02 11:43:20;;;;;;;;;;;18.00;45.50;;;;;;10407355;28;856;-78
2023/03/02 11:48:16;;;;;;;;;;;18.00;45.50;;;;;;10406881;28;1226;-79
2023/03/02 11:53:11;;;;;;;;;;;18.00;45.40;;;;;;10406635;28;972;-78
2023/03/02 11:58:06;;;;;;;;;;;18.00;45.50;;;;;;10407103;28;871;-78
2023/03/02 12:03:02;;;;;;;;;;;18.00;45.50;;;;;;10408565;28;1968;-78
2023/03/02 12:07:57;;;;;;;;;;;18.00;45.50;;;;;;10414309;28;829;-78
2023/03/02 12:12:52;;;;;;;;;;;18.10;45.50;;;;;;10413141;28;913;-76
2023/03/02 12:17:48;;;;;;;;;;;18.10;45.50;;;;;;10414001;28;845;-77
2023/03/02 12:22:43;;;;;;;;;;;18.10;45.60;;;;;;10413127;28;1906;-76
2023/03/02 12:27:41;;;;;;;;;;;18.10;45.50;;;;;;10413578;28;881;-76
2023/03/02 12:32:36;;;;;;;;;;;18.10;45.50;;;;;;10412923;28;860;-76
2023/03/02 12:37:32;;;;;;;;;;;18.10;45.50;;;;;;10413310;28;873;-76
2023/03/02 12:42:27;;;;;;;;;;;18.10;45.50;;;;;;10412922;28;1902;-76
2023/03/02 12:47:25;;;;;;;;;;;18.20;45.40;;;;;;10412795;28;941;-76
2023/03/02 12:52:21;;;;;;;;;;;18.20;45.40;;;;;;10412556;28;1423;-77
2023/03/02 12:57:16;;;;;;;;;;;18.20;45.40;;;;;;10411814;28;868;-81
2023/03/02 13:02:12;;;;;;;;;;;18.30;44.80;;;;;;10411519;28;1910;-76
2023/03/02 13:07:07;;;;;;;;;;;17.40;40.90;;;;;;10412013;28;874;-76
2023/03/02 13:12:02;;;;;;;;;;;16.80;37.30;;;;;;10411121;28;967;-76
2023/03/02 13:16:58;;;;;;;;;;;16.60;36.40;;;;;;10410310;28;947;-76
2023/03/02 13:21:53;;;;;;;;;;;16.60;37.40;;;;;;10411307;28;1897;-76
2023/03/02 13:26:48;;;;;;;;;;;17.40;38.20;;;;;;10410622;28;814;-76
2023/03/02 13:31:44;;;;;;;;;;;17.80;38.10;;;;;;10410973;28;870;-76
2023/03/02 13:36:39;;;;;;;;;;;18.10;38.50;;;;;;10409612;28;834;-76
2023/03/02 13:41:35;;;;;;;;;;;18.20;38.90;;;;;;10409952;28;1905;-76
2023/03/02 13:46:31;;;;;;;;;;;18.40;39.30;;;;;;10409125;28;912;-75
2023/03/02 13:51:28;;;;;;;;;;;18.50;39.70;;;;;;10408750;28;1348;-76
2023/03/02 13:56:23;;;;;;;;;;;18.50;39.90;;;;;;10409087;28;892;-76
2023/03/02 14:01:18;;;;;;;;;;;18.70;40.20;;;;;;10408863;28;1913;-76
2023/03/02 14:06:14;;;;;;;;;;;18.80;40.40;;;;;;10408833;28;944;-76
2023/03/02 14:11:09;;;;;;;;;;;18.80;40.70;;;;;;10408564;28;856;-76
2023/03/02 14:16:04;;;;;;;;;;;19.00;40.70;;;;;;10408471;28;751;-76
2023/03/02 14:21:00;;;;;;;;;;;19.10;40.80;;;;;;10408289;28;1959;-76
2023/03/02 14:25:55;;;;;;;;;;;19.20;40.90;;;;;;10408317;28;778;-76
2023/03/02 14:30:51;;;;;;;;;;;19.30;41.00;;;;;;10408051;28;871;-76
2023/03/02 14:35:46;;;;;;;;;;;19.30;41.00;;;;;;10408468;28;763;-76
2023/03/02 14:40:42;;;;;;;;;;;19.40;41.10;;;;;;10407567;28;1897;-77
2023/03/02 14:45:37;;;;;;;;;;;19.50;41.20;;;;;;10408606;28;779;-76
2023/03/02 14:50:33;;;;;;;;;;;19.60;41.20;;;;;;10408518;28;1098;-76
2023/03/02 14:55:28;;;;;;;;;;;19.70;41.20;;;;;;10407995;28;858;-76
2023/03/02 15:00:23;;;;;;;;;;;19.70;41.30;;;;;;10407249;28;1987;-75
2023/03/02 15:05:19;;;;;;;;;;;19.80;41.30;;;;;;10407471;28;1030;-76
2023/03/02 15:10:14;;;;;;;;;;;19.90;41.30;;;;;;10408252;28;756;-72
2023/03/02 15:15:09;;;;;;;;;;;20.00;41.40;;;;;;10407331;28;838;-76
2023/03/02 15:20:05;;;;;;;;;;;20.00;41.50;;;;;;10406561;28;1965;-76
2023/03/02 15:25:00;;;;;;;;;;;20.00;41.50;;;;;;10407121;28;940;-76
2023/03/02 15:29:55;;;;;;;;;;;20.10;41.60;;;;;;10407148;28;918;-75
2023/03/02 15:34:51;;;;;;;;;;;20.10;41.60;;;;;;10406366;28;850;-75
2023/03/02 15:39:46;;;;;;;;;;;20.10;41.60;;;;;;10411317;28;1905;-76
2023/03/02 15:44:42;;;;;;;;;;;20.20;41.70;;;;;;10414717;28;753;-75
2023/03/02 15:49:37;;;;;;;;;;;20.20;41.70;;;;;;10415057;28;1319;-76
2023/03/02 15:54:32;;;;;;;;;;;20.10;41.90;;;;;;10414316;28;845;-76
2023/03/02 15:59:28;;;;;;;;;;;20.20;41.90;;;;;;10414114;28;1980;-76
2023/03/02 16:04:23;;;;;;;;;;;20.20;41.90;;;;;;10414567;28;810;-76
2023/03/02 16:09:18;;;;;;;;;;;20.20;42.00;;;;;;10414990;28;908;-75
2023/03/02 16:14:14;;;;;;;;;;;20.10;42.20;;;;;;10414151;28;851;-75
2023/03/02 16:19:09;;;;;;;;;;;20.00;42.40;;;;;;10413740;28;1980;-75
2023/03/02 16:24:05;;;;;;;;;;;19.70;42.30;;;;;;10413764;28;807;-76
2023/03/02 16:29:00;;;;;;;;;;;19.50;42.10;;;;;;10413115;28;960;-77
2023/03/02 16:33:56;;;;;;;;;;;19.40;42.30;;;;;;10412787;28;764;-76
2023/03/02 16:38:52;;;;;;;;;;;19.30;42.30;;;;;;10412502;27;1967;-76
2023/03/02 16:43:47;;;;;;;;;;;19.20;42.30;;;;;;10412010;28;885;-76
2023/03/02 16:48:43;;;;;;;;;;;19.20;42.40;;;;;;10411373;28;1333;-73
2023/03/02 16:53:39;;;;;;;;;;;19.20;42.50;;;;;;10411971;28;767;-77
2023/03/02 16:58:37;;;;;;;;;;;19.20;42.60;;;;;;10411783;28;1984;-76
2023/03/02 17:03:32;;;;;;;;;;;19.10;42.50;;;;;;10411495;28;901;-76
2023/03/02 17:08:27;;;;;;;;;;;19.10;42.70;;;;;;10411448;28;850;-76
2023/03/02 17:13:23;;;;;;;;;;;19.10;42.70;;;;;;10411196;28;1103;-76
2023/03/02 17:18:18;;;;;;;;;;;19.10;42.60;;;;;;10411537;28;936;-77
2023/03/02 17:23:15;;;;;;;;;;;19.10;42.70;;;;;;10411474;28;1941;-78
2023/03/02 17:28:11;;;;;;;;;;;19.10;42.60;;;;;;10411537;28;786;-77
2023/03/02 17:33:06;;;;;;;;;;;19.10;42.70;;;;;;10410342;28;984;-76
2023/03/02 17:38:02;;;;;;;;;;;19.10;43.30;;;;;;10410244;28;760;-78
2023/03/02 17:42:57;;;;;;;;;;;19.10;42.90;;;;;;10409288;28;1902;-78
2023/03/02 17:47:52;;;;;;;;;;;19.00;42.90;;;;;;10410243;28;1269;-77
2023/03/02 17:52:48;;;;;;;;;;;18.90;43.00;;;;;;10409127;28;1040;-78
2023/03/02 17:57:43;;;;;;;;;;;18.90;43.00;;;;;;10409331;28;859;-78
2023/03/02 18:02:39;;;;;;;;;;;19.00;43.10;;;;;;10408412;28;1902;-78
2023/03/02 18:07:34;;;;;;;;;;;19.00;43.10;;;;;;10409920;28;838;-78
2023/03/02 18:12:29;;;;;;;;;;;18.90;43.00;;;;;;10409827;28;905;-78
2023/03/02 18:17:25;;;;;;;;;;;19.00;43.00;;;;;;10409368;28;936;-78
2023/03/02 18:22:20;;;;;;;;;;;18.90;43.00;;;;;;10407911;28;1966;-78
2023/03/02 18:27:16;;;;;;;;;;;18.90;43.00;;;;;;10408425;28;941;-78
2023/03/02 18:32:11;;;;;;;;;;;19.00;43.10;;;;;;10408318;28;937;-78
2023/03/02 18:37:07;;;;;;;;;;;19.00;43.00;;;;;;10408163;28;849;-78
2023/03/02 18:42:02;;;;;;;;;;;19.00;43.00;;;;;;10408805;28;1902;-79
2023/03/02 18:46:57;;;;;;;;;;;19.00;43.00;;;;;;10407932;28;943;-78
2023/03/02 18:51:54;;;;;;;;;;;19.00;43.00;;;;;;10407793;28;1269;-78
2023/03/02 18:56:49;;;;;;;;;;;19.00;43.00;;;;;;10407691;28;900;-78
2023/03/02 19:01:44;;;;;;;;;;;19.10;43.10;;;;;;10408116;28;1965;-78
2023/03/02 19:06:40;;;;;;;;;;;19.00;43.00;;;;;;10408282;28;868;-78
2023/03/02 19:11:35;;;;;;;;;;;19.00;43.00;;;;;;10408947;28;916;-78
2023/03/02 19:16:31;;;;;;;;;;;19.10;43.20;;;;;;10415834;28;751;-78
2023/03/02 19:21:26;;;;;;;;;;;19.00;43.10;;;;;;10415556;28;1898;-85
2023/03/02 19:26:21;;;;;;;;;;;19.10;43.10;;;;;;10414698;28;929;-83
2023/03/02 19:31:17;;;;;;;;;;;19.00;42.90;;;;;;10416580;28;911;-84
2023/03/02 19:36:12;;;;;;;;;;;19.00;42.80;;;;;;10415422;28;873;-83
2023/03/02 19:41:08;;;;;;;;;;;19.00;42.80;;;;;;10414187;28;1898;-83
2023/03/02 19:46:03;;;;;;;;;;;19.00;42.80;;;;;;10414460;28;780;-78
2023/03/02 19:50:59;;;;;;;;;;;19.00;42.80;;;;;;10415089;28;1135;-78
2023/03/02 19:55:54;;;;;;;;;;;19.00;42.80;;;;;;10414132;28;798;-78
2023/03/02 20:00:50;;;;;;;;;;;19.00;42.80;;;;;;10414044;28;1910;-78
2023/03/02 20:05:45;;;;;;;;;;;19.00;42.80;;;;;;10413051;28;874;-79
2023/03/02 20:10:40;;;;;;;;;;;19.10;42.80;;;;;;10413489;28;821;-78
2023/03/02 20:15:39;;;;;;;;;;;19.10;42.90;;;;;;10414491;28;893;-78
2023/03/02 20:20:34;;;;;;;;;;;19.00;42.90;;;;;;10413853;28;1905;-78
2023/03/02 20:25:29;;;;;;;;;;;19.10;42.90;;;;;;10411964;28;897;-78
2023/03/02 20:30:26;;;;;;;;;;;19.10;42.90;;;;;;10412654;28;1240;-78
2023/03/02 20:35:21;;;;;;;;;;;19.10;43.00;;;;;;10413066;28;838;-79
2023/03/02 20:40:17;;;;;;;;;;;19.10;43.00;;;;;;10412825;28;1973;-79
2023/03/02 20:45:12;;;;;;;;;;;19.00;43.00;;;;;;10412030;28;817;-78
2023/03/02 20:50:08;;;;;;;;;;;19.10;43.00;;;;;;10411612;28;1233;-79
2023/03/02 20:55:03;;;;;;;;;;;19.00;42.90;;;;;;10411693;28;881;-78
2023/03/02 20:59:58;;;;;;;;;;;19.00;43.00;;;;;;10412147;28;1972;-78
2023/03/02 21:04:54;;;;;;;;;;;19.00;43.10;;;;;;10412079;28;846;-74
2023/03/02 21:09:49;;;;;;;;;;;19.00;43.00;;;;;;10410589;28;901;-75
2023/03/02 21:14:45;;;;;;;;;;;18.90;43.10;;;;;;10411201;28;853;-71
2023/03/02 21:19:40;;;;;;;;;;;18.90;43.20;;;;;;10411075;28;1902;-72
2023/03/02 21:24:35;;;;;;;;;;;18.90;43.10;;;;;;10411777;28;906;-71
2023/03/02 21:29:31;;;;;;;;;;;18.90;43.10;;;;;;10411221;28;960;-71
2023/03/02 21:34:26;;;;;;;;;;;18.90;43.20;;;;;;10410442;28;797;-71
2023/03/02 21:39:22;;;;;;;;;;;18.90;43.20;;;;;;10410185;28;1957;-72
2023/03/02 21:44:17;;;;;;;;;;;18.90;43.10;;;;;;10410098;28;864;-73
2023/03/02 21:49:13;;;;;;;;;;;18.90;43.10;;;;;;10410552;28;1120;-73
2023/03/02 21:54:08;;;;;;;;;;;18.90;43.20;;;;;;10409693;28;789;-73
2023/03/02 21:59:03;;;;;;;;;;;18.80;43.10;;;;;;10409434;28;1910;-73
2023/03/02 22:03:59;;;;;;;;;;;18.90;43.20;;;;;;10409426;28;855;-73
2023/03/02 22:08:55;;;;;;;;;;;18.90;43.20;;;;;;10409098;28;925;-71
2023/03/02 22:13:51;;;;;;;;;;;18.90;43.10;;;;;;10408888;28;948;-71
2023/03/02 22:18:46;;;;;;;;;;;18.90;43.10;;;;;;10408370;28;1897;-71
2023/03/02 22:23:41;;;;;;;;;;;18.90;43.10;;;;;;10409226;28;768;-71
2023/03/02 22:28:39;;;;;;;;;;;18.80;43.10;;;;;;10409079;28;810;-71
2023/03/02 22:33:35;;;;;;;;;;;18.90;43.20;;;;;;10408334;28;868;-71
2023/03/02 22:38:30;;;;;;;;;;;18.80;43.20;;;;;;10408765;28;980;-71
2023/03/02 22:43:28;;;;;;;;;;;18.80;43.20;;;;;;10408161;28;1929;-71
2023/03/02 22:48:27;;;;;;;;;;;18.80;43.20;;;;;;10407489;28;1194;-71
2023/03/02 22:53:23;;;;;;;;;;;18.80;43.20;;;;;;10408629;28;797;-71
2023/03/02 22:58:18;;;;;;;;;;;18.80;43.20;;;;;;10408459;28;866;-71
2023/03/02 23:03:14;;;;;;;;;;;18.80;43.20;;;;;;10406957;28;1913;-71
2023/03/02 23:08:09;;;;;;;;;;;18.80;43.20;;;;;;10408168;28;731;-71
2023/03/02 23:13:04;;;;;;;;;;;18.80;43.20;;;;;;10407435;28;775;-71
2023/03/02 23:18:00;;;;;;;;;;;18.80;43.20;;;;;;10407366;28;838;-71
2023/03/02 23:22:55;;;;;;;;;;;18.80;43.20;;;;;;10407797;28;1962;-71
2023/03/02 23:27:51;;;;;;;;;;;18.80;43.20;;;;;;10407199;28;992;-71
2023/03/02 23:32:46;;;;;;;;;;;18.80;43.20;;;;;;10407722;28;851;-71
2023/03/02 23:37:42;;;;;;;;;;;18.70;43.20;;;;;;10407018;28;790;-71
2023/03/02 23:42:37;;;;;;;;;;;18.80;43.20;;;;;;10406736;28;1901;-71
2023/03/02 23:47:33;;;;;;;;;;;18.80;43.20;;;;;;10406624;28;1100;-72
2023/03/02 23:52:28;;;;;;;;;;;18.70;43.10;;;;;;10406743;28;781;-71
2023/03/02 23:57:23;;;;;;;;;;;18.80;43.10;;;;;;10407249;28;950;-71
